x

West Oregon - 275nm West Of Coos Bay, Or (46002) Wave Buoy

5:50am - Fri 18th Apr 2014 All times are UTC.

  • Sig Wave height 8.2ft
  • Peak Period 10s
  • Average Period 8s
  • Wind
    2mph, 4mph gusts
  • Sea Temp 53°f
  • Air Temp 52°f
  • Sea Pressure 1020.2mb

More Historic Weather Station data

Upgrade to MSW Pro to gain access to the past 30 days of data for over 8000 Wavebouys and Weather Stations around the globe.

Join Pro

Comparision Forecast

View Surf forecast
   
Fri 04/18 5:50am 8ft 10s 8s 2 4 mph 1020.2mb 53f 52f
4:50am 9ft 9s 8s 2 7 mph 1019.8mb 53f 52f
3:50am 9ft 11s 8s 7 9 mph 1019mb 53f 52f
2:50am 9ft 10s 8s 9 13 mph 1018.6mb 54f 52f
1:50am 9.5ft 11s 7s 11 16 mph 1018.2mb 54f 52f
12:50am 9.5ft 11s 7s 16 20 mph 1018mb 54f 52f
Thu 04/17 11:50pm 9.5ft 11s 7s 13 18 mph 1017.4mb 54f 53f
10:50pm 9ft 11s 7s 16 18 mph 1017.1mb 53f 53f
9:50pm 9.5ft 11s 7s 16 18 mph 1017mb 53f 53f
8:50pm 10ft 11s 7s 20 22 mph 1016.3mb 53f 53f
7:50pm 9.5ft 11s 7s 20 22 mph 1015.9mb 53f 53f
6:50pm 9.5ft 11s 7s 20 25 mph 1015mb 53f 53f
5:50pm 9.5ft 9s 7s 22 27 mph 1013.9mb 53f 52f
4:50pm 9.5ft 11s 7s 22 27 mph 1012.7mb 53f 53f
3:50pm 8.5ft 11s 6s 20 25 mph 1011.8mb 53f 54f
2:50pm 8ft 11s 6s 22 27 mph 1011mb 53f 54f
1:50pm 9ft 11s 7s 25 29 mph 1011mb 53f 54f
12:50pm 8ft 11s 7s 22 27 mph 1011.7mb 54f 54f
11:50am 8.5ft 11s 7s 22 27 mph 1012.4mb 54f 54f
10:50am 8.5ft 11s 7s 20 25 mph 1012.8mb 54f 54f
9:50am 8ft 11s 7s 18 22 mph 1013.6mb 54f 54f
8:50am 7.5ft 11s 7s 16 20 mph 1014.6mb 54f 54f
7:50am 8ft 11s 7s 18 27 mph 1015.3mb 54f 54f
6:50am 8.5ft 11s 8s 16 20 mph 1015.9mb 54f 54f
5:50am 10ft 12s 8s 16 18 mph 1016.7mb 54f 54f
4:50am 9ft 11s 8s 13 16 mph 1017.1mb 54f 54f
3:50am 9ft 11s 8s 13 16 mph 1017.3mb 54f 54f
2:50am 9.5ft 11s 8s 11 16 mph 1017.5mb 54f 54f
1:50am 9.5ft 12s 8s 11 13 mph 1018.1mb 54f 54f
12:50am 9.5ft 11s 8s 11 13 mph 1018.5mb 54f 54f
Wed 04/16 11:50pm 9ft 12s 8s 13 16 mph 1019mb 54f 55f
10:50pm 9ft 12s 8s 13 16 mph 1019.4mb 54f 54f
9:50pm 8.5ft 12s 8s 16 18 mph 1020mb 53f 54f
8:50pm 10ft 10s 8s 13 18 mph 1019.9mb 53f 54f
7:50pm 9ft 12s 8s 16 18 mph 1020.5mb 53f 54f
6:50pm 9ft 11s 8s 13 16 mph 1020.8mb 53f 54f
5:50pm 9ft 12s 7s 13 18 mph 1021mb 53f 54f
4:50pm 9ft 12s 8s 16 18 mph 1021mb 53f 54f
3:50pm 7.5ft 11s 7s 16 18 mph 1021.2mb 53f 54f
2:50pm 7.5ft 11s 7s 16 20 mph 1021.2mb 53f 54f
1:50pm 7.5ft 12s 7s 13 16 mph 1021.1mb 53f 54f
12:50pm 7ft 11s 7s 16 18 mph 1021.3mb 53f 54f
11:50am 7ft 10s 7s 16 18 mph 1021.4mb 53f 54f
10:50am 7ft 11s 7s 16 20 mph 1021.9mb 53f 53f
9:50am 7ft 9s 7s 16 18 mph 1022.3mb 53f 53f
8:50am 7ft 9s 7s 16 18 mph 1022.9mb 53f 53f
7:50am 6.5ft 11s 7s 16 18 mph 1023.4mb 53f 53f
6:50am 6.5ft 11s 7s 13 18 mph 1023.8mb 53f 53f
5:50am 7ft 9s 7s 13 18 mph 1024mb 53f 53f
4:50am 7.5ft 11s 8s 11 16 mph 1024.3mb 53f 53f
3:50am 7ft 8s 7s 13 16 mph 1024.4mb 54f 53f
2:50am 7ft 10s 7s 11 16 mph 1024.4mb 54f 54f
1:50am 7ft 12s 7s 11 13 mph 1024.4mb 54f 54f
12:50am 7ft 9s 7s 11 13 mph 1025mb 54f 54f
Tue 04/15 11:50pm 6ft 9s 7s 9 11 mph 1025.8mb 53f 54f
10:50pm 7ft 10s 7s 11
mph
1025.9mb 53f 53f
9:50pm 6.5ft 12s 7s 9 11 mph 1026.3mb 53f 53f
8:50pm 6ft 11s 7s 7 9 mph 1027mb 53f 53f
7:50pm 7ft 11s 7s 9 11 mph 1027.6mb 53f 53f
6:50pm 6.5ft 11s 7s 11 13 mph 1027.6mb 53f 53f
5:50pm 7ft 10s 7s 11 13 mph 1027.6mb 53f 53f
4:50pm 8ft 11s 8s 11 13 mph 1027mb 53f 53f
3:50pm 8ft 11s 8s 13 16 mph 1027.1mb 53f 53f
2:50pm 7ft 11s 8s 13 16 mph 1027.4mb 53f 52f
1:50pm 7.5ft 11s 8s 11 16 mph 1027.3mb 53f 52f
12:50pm 8.5ft 12s 8s 11 13 mph 1027.4mb 53f 52f
11:50am 7.5ft 12s 8s 9 13 mph 1027.6mb 53f 52f
10:50am 7ft 12s 8s 11 13 mph 1028mb 53f 52f
9:50am 7ft 12s 7s 11
mph
1028.3mb 53f 52f
8:50am 6ft 12s 6s 11 16 mph 1029.1mb 53f 52f
7:50am 6.5ft 12s 7s 13 16 mph 1029.4mb 53f 52f
6:50am 7ft 13s 7s 16 18 mph 1029.3mb 53f 52f
5:50am 7ft 13s 7s 13 18 mph 1029.6mb 53f 52f
4:50am 7ft 12s 7s 13 18 mph 1029.4mb 53f 52f
3:50am 7.5ft 12s 7s 16 20 mph 1029mb 53f 52f
2:50am 7ft 13s 7s 13 16 mph 1028.6mb 53f 52f
1:50am 6.5ft 12s 7s 11 13 mph 1028.6mb 53f 52f
12:50am 7ft 7s 6s 11 13 mph 1028.7mb 53f 52f
Mon 04/14 11:50pm 7ft 13s 7s 13 16 mph 1029mb 53f 52f
10:50pm 7ft 13s 7s 13 16 mph 1029.1mb 53f 52f
9:50pm 7ft 12s 6s 16 20 mph 1029.1mb 53f 52f
8:50pm 7ft 12s 6s 16 18 mph 1029.2mb 53f 52f
7:50pm 7ft 12s 6s 18 20 mph 1029.4mb 53f 52f
6:50pm 8ft 13s 6s 16 20 mph 1028.9mb 53f 52f
5:50pm 7ft 6s 6s 18 20 mph 1028.1mb 53f 52f
4:50pm 7.5ft 6s 6s 20 25 mph 1027.3mb 53f 52f
3:50pm 7ft 13s 6s 20 25 mph 1026.9mb 53f 52f
2:50pm 7ft 14s 6s 20 25 mph 1026.3mb 53f 52f
1:50pm 6.5ft 14s 6s 22 27 mph 1025.7mb 53f 52f
12:50pm 6.5ft 14s 6s 22 27 mph 1025.2mb 53f 52f
11:50am 6ft 14s 6s 20 25 mph 1025mb 53f 52f
10:50am 6ft 15s 6s 20 25 mph 1024.9mb 53f 53f
9:50am 5ft 15s 7s 18 22 mph 1024.9mb 53f 52f
8:50am 6ft 14s 9s 13 18 mph 1024.8mb 53f 52f
7:50am 5.5ft 14s 8s 11 13 mph 1024.8mb 53f 51f